Terminal Aerodrome Forecast
Issued by NWS

Home | Current Version | Previous Version | Text Only | Print | Product List | Glossary On
Versions: 1 2 3 4 5 6 7 8 9 10 11 12 13 14 15 16 17 18 19 20 21 22 23 24 25 26 27 28 29 30 31 32 33 34 35 36 37 38 39 40 41 42 43 44 45 46 47 48 49 50
000
FTUS43 KMKX 272332
TAFENW
TAF
KENW 272332Z 2800/2824 29006KT P6SM BKN025
      TEMPO 2800/2802 SCT025
     FM280200 28005KT P6SM SCT025 SCT200
     FM280900 24004KT P6SM BKN100
     FM281200 19006KT P6SM OVC035
     FM281300 19007KT 4SM -SN OVC025
      TEMPO 2813/2817 2SM -SN BKN015
     FM281700 18011KT P6SM OVC025
     FM282000 18013KT P6SM OVC020=

USA.gov is the U.S. government's official web portal to all federal, state and local government web resources and services.